Calgary Springbank, Alberta

10:20 AM MDT on May 26, 2015 (GMT -0600)
Springbank | | Change Station
CLOSE
Current Station
Airport
Location: Calgary Springbank,
Elevation: 3937 ft
Nearby Weather Stations

Elev 3937 ft 51.10 °N, 114.37 °W | Updated 20 minutes ago

Overcast
Overcast
57 °F
Feels Like 57 °F
N
16
Wind Variable Wind from North
Gusts 22 mph

Today is forecast to be nearly the same temperature as yesterday.

Today
High -- | Low -- °F
--% Chance of Precip.
Yesterday
High -- | Low -- °F
Precip. -- in
5:33 AM 9:36 PM
First Quarter, 59% visible
Pressure 30.01 in
Visibility 9.0 miles
Clouds Mostly Cloudy 9000 ft
Mostly Cloudy 11000 ft
Overcast 15000 ft
Dew Point 43 °F
Humidity 59%
Rainfall 0.00 in
Snow Depth Not available.
UV 2 out of 12
Pollen Not available.
Air Quality Not available.
Flu Activity Not available.
METAR CYBW 261600Z AUTO 36014G19KT 9SM BKN090 BKN110 OVC150 14/06 A2999 RMK SLP162 DENSITY ALT 4700FT

More Conditions Fewer Conditions

Pressure 30.01 in
Visibility 9.0 miles
Clouds Mostly Cloudy 9000 ft
Mostly Cloudy 11000 ft
Overcast 15000 ft
Dew Point 43 °F
Humidity 59%
Rainfall 0.00 in
Snow Depth Not available.
UV 2 out of 12
Pollen Not available.
Air Quality Not available.
Flu Activity Not available.
METAR CYBW 261600Z AUTO 36014G19KT 9SM BKN090 BKN110 OVC150 14/06 A2999 RMK SLP162 DENSITY ALT 4700FT

More Conditions Fewer Conditions

10-Day Weather Forecast

Almanac

Astronomy

May. 26, 2015 Rise Set
Actual Time
Civil Twilight
Nautical Twilight
Astronomical Twilight
Moon
Length of Visible Light
Length of Day
Tomorrow will be .
, % of the Moon is Illuminated

Today's Extremes

Country Highs Country Lows

Community

WunderPhotos

Upload Photos

1,824,376 photos uploaded!

WunderBlogs® & News

Nearby

Air Quality

  Air Quality AQ Index Pollutant
Not available.

Snow Depth

Station Depth Elevation

Earthquake Activity

City Distance Mag. Time & Date
Minimum magnitude displayed is 2.5.

Coastal Water Temperatures

Place Temperature

Stations

Nearby Weather Stations

Station Location Temp. Windchill Dew Point Humidity Wind Precip. Elev Updated Type